createdAt,value
2019-06-07T00:07:08.577Z,13.6
2019-06-07T00:37:07.772Z,13.7
2019-06-07T01:07:06.864Z,13.6
2019-06-07T01:37:08.453Z,14
2019-06-07T02:07:08.613Z,13.6
2019-06-07T02:37:09.887Z,13.6
2019-06-07T03:07:10.973Z,13
2019-06-07T03:37:13.235Z,13.8
2019-06-07T04:07:11.891Z,13.3
2019-06-07T04:37:13.437Z,13.4
2019-06-07T05:07:14.594Z,13.8
2019-06-07T05:37:19.095Z,13.9
2019-06-07T06:07:19.587Z,13.6
2019-06-07T06:37:20.073Z,13.8
2019-06-07T07:07:21.204Z,14.6
2019-06-07T07:37:22.259Z,14.6
2019-06-07T08:07:23.519Z,14.2
2019-06-07T08:37:23.663Z,14.7
2019-06-07T09:07:24.929Z,14.4
2019-06-07T09:38:12.465Z,14.8
2019-06-07T10:07:35.123Z,14.3
2019-06-07T10:37:29.470Z,14.8
2019-06-07T11:07:28.030Z,15.3
2019-06-07T11:37:29.005Z,14.7
2019-06-07T12:07:31.804Z,14.9
2019-06-07T12:37:45.562Z,15.1
2019-06-07T13:37:34.418Z,14.2
2019-06-07T14:07:35.268Z,14.4
2019-06-07T14:37:36.143Z,14.5
2019-06-07T15:07:40.179Z,14.6
2019-06-07T15:37:40.036Z,14.6
2019-06-07T16:07:38.728Z,14.3
2019-06-07T16:37:42.916Z,14.2
2019-06-07T17:07:42.451Z,14.1
2019-06-07T17:37:45.731Z,14.7
2019-06-07T18:07:43.375Z,14.7
2019-06-07T18:37:44.659Z,14
2019-06-07T19:07:52.509Z,14.3
2019-06-07T19:37:47.062Z,13.9
2019-06-07T20:07:48.032Z,14.2
2019-06-07T20:37:48.820Z,14.2
2019-06-07T21:06:12.948Z,14.3
2019-06-07T21:36:14.654Z,14.3
2019-06-07T22:06:14.206Z,14.3
2019-06-07T22:36:15.851Z,14.1
2019-06-07T23:06:16.741Z,14.1
2019-06-07T23:36:15.471Z,13.9
